Pagrindinis puslapis
METAR-TAF:

METAR-TAF

Oro uostai :

Trondheimas, Norvegija

platuma: 63-28N, ilguma: 010-56E, Aukštis: 1 m

Dabartinis oras

Ataskaita buvo paskelbta 7 minutes, ne 12:20 UTC
Vėjas 11 kt iš Rytų/Pietryčių
Temperatūra 18°C
Drėgmė 42%
Slėgis 1014 hPa
Matomumas 10 km arba daugiau
nėra debesų žemiau 1500 m ir nėra kamuolinių lietaus debesų

METAR: ENVA 191220Z 11011KT CAVOK 18/05 Q1014 NOSIG RMK WIND 670FT 11014KT

Laikas: 14:27 (12:27 UTC)

Prognozė

Prognozė galioja nuo 19 metu 06 UTC su 20 metu 06 UTC
Vėjas 6 kt iš Pietryčių
Matomumas 10 km arba daugiau
Su prošvaistėmis ne aukštis 3000 ft
Laikinai
nuo 19 metu 12 UTC su 19 metu 17 UTC
Vėjas 16 kt iš Pietų
Tikimybė 30%
nuo 20 metu 03 UTC su 20 metu 06 UTC
Su prošvaistėmis ne aukštis 800 ft

TAF: ENVA 1906/2006 13006KT 9999 BKN030 TEMPO 1912/1917 17016KT PROB30 2003/2006 BKN008

Orai ataskaitas ir orų prognozės (METAR, TAF).

turimą stotys yra geltonos ir raudonos taškus žemėlapyje.

Perkelti pele per norėdami pamatyti stoties vardą.

Tada spustelėkite, norėdami matyti oro stebėjimo ir prognozės.

Norėdami pakeisti žemėlapį: spustelėkite ant žalios mygtukų su juodo kryžiaus žemyn,; žalią mygtuką su brūkšneliu, jei norite nutolinti; arba žalių rodyklių gretimoms žemėlapius.


METAR-TAF: